sensor_id;sensor_type;location;lat;lon;timestamp;P1;durP1;ratioP1;P2;durP2;ratioP2
27357;SDS011;14831;50.474;7.616;2022-11-20T00:04:21;2.7;;;2.5;;
27357;SDS011;14831;50.474;7.616;2022-11-20T00:09:21;2.7;;;2.5;;
27357;SDS011;14831;50.474;7.616;2022-11-20T00:14:21;2.7;;;2.5;;
27357;SDS011;14831;50.474;7.616;2022-11-20T00:19:21;2.7;;;2.5;;
27357;SDS011;14831;50.474;7.616;2022-11-20T00:24:21;2.8;;;2.6;;
27357;SDS011;14831;50.474;7.616;2022-11-20T00:29:21;2.8;;;2.6;;
27357;SDS011;14831;50.474;7.616;2022-11-20T00:34:21;2.8;;;2.6;;
27357;SDS011;14831;50.474;7.616;2022-11-20T00:39:21;2.8;;;2.6;;
27357;SDS011;14831;50.474;7.616;2022-11-20T00:44:21;2.8;;;2.6;;
27357;SDS011;14831;50.474;7.616;2022-11-20T00:49:21;2.8;;;2.6;;
27357;SDS011;14831;50.474;7.616;2022-11-20T00:54:21;2.8;;;2.6;;
27357;SDS011;14831;50.474;7.616;2022-11-20T00:59:21;2.8;;;2.6;;
27357;SDS011;14831;50.474;7.616;2022-11-20T01:04:21;2.8;;;2.6;;
27357;SDS011;14831;50.474;7.616;2022-11-20T01:09:21;2.8;;;2.6;;
27357;SDS011;14831;50.474;7.616;2022-11-20T01:14:21;2.8;;;2.6;;
27357;SDS011;14831;50.474;7.616;2022-11-20T01:19:22;2.8;;;2.6;;
27357;SDS011;14831;50.474;7.616;2022-11-20T01:24:22;2.5;;;2.3;;
27357;SDS011;14831;50.474;7.616;2022-11-20T01:29:23;2.5;;;2.3;;
27357;SDS011;14831;50.474;7.616;2022-11-20T01:34:22;2.5;;;2.3;;
27357;SDS011;14831;50.474;7.616;2022-11-20T01:39:23;2.5;;;2.3;;
27357;SDS011;14831;50.474;7.616;2022-11-20T01:44:42;2.5;;;2.3;;
27357;SDS011;14831;50.474;7.616;2022-11-20T01:49:24;2.5;;;2.3;;
27357;SDS011;14831;50.474;7.616;2022-11-20T01:54:26;2.7;;;2.5;;
27357;SDS011;14831;50.474;7.616;2022-11-20T01:59:22;2.7;;;2.5;;
27357;SDS011;14831;50.474;7.616;2022-11-20T02:04:22;2.7;;;2.5;;
27357;SDS011;14831;50.474;7.616;2022-11-20T02:09:21;2.7;;;2.5;;
27357;SDS011;14831;50.474;7.616;2022-11-20T02:14:22;2.7;;;2.5;;
27357;SDS011;14831;50.474;7.616;2022-11-20T02:19:26;2.7;;;2.5;;
27357;SDS011;14831;50.474;7.616;2022-11-20T02:24:22;2.6;;;2.4;;
27357;SDS011;14831;50.474;7.616;2022-11-20T02:29:26;2.6;;;2.4;;
27357;SDS011;14831;50.474;7.616;2022-11-20T02:34:21;2.6;;;2.4;;
27357;SDS011;14831;50.474;7.616;2022-11-20T02:39:23;2.6;;;2.4;;
27357;SDS011;14831;50.474;7.616;2022-11-20T02:44:21;2.6;;;2.4;;
27357;SDS011;14831;50.474;7.616;2022-11-20T02:49:21;2.6;;;2.4;;
27357;SDS011;14831;50.474;7.616;2022-11-20T02:54:21;2.8;;;2.6;;
27357;SDS011;14831;50.474;7.616;2022-11-20T02:59:21;2.8;;;2.6;;
27357;SDS011;14831;50.474;7.616;2022-11-20T03:04:21;2.8;;;2.6;;
27357;SDS011;14831;50.474;7.616;2022-11-20T03:09:21;2.8;;;2.6;;
27357;SDS011;14831;50.474;7.616;2022-11-20T03:14:21;2.8;;;2.6;;
27357;SDS011;14831;50.474;7.616;2022-11-20T03:19:21;2.8;;;2.6;;
27357;SDS011;14831;50.474;7.616;2022-11-20T03:24:21;2.7;;;2.5;;
27357;SDS011;14831;50.474;7.616;2022-11-20T03:29:21;2.7;;;2.5;;
27357;SDS011;14831;50.474;7.616;2022-11-20T03:34:21;2.7;;;2.5;;
27357;SDS011;14831;50.474;7.616;2022-11-20T03:39:21;2.7;;;2.5;;
27357;SDS011;14831;50.474;7.616;2022-11-20T03:44:21;2.7;;;2.5;;
27357;SDS011;14831;50.474;7.616;2022-11-20T03:49:21;2.7;;;2.5;;
27357;SDS011;14831;50.474;7.616;2022-11-20T03:54:21;2.5;;;2.3;;
27357;SDS011;14831;50.474;7.616;2022-11-20T03:59:21;2.5;;;2.3;;
27357;SDS011;14831;50.474;7.616;2022-11-20T04:04:21;2.5;;;2.3;;
27357;SDS011;14831;50.474;7.616;2022-11-20T04:09:21;2.5;;;2.3;;
27357;SDS011;14831;50.474;7.616;2022-11-20T04:14:21;2.5;;;2.3;;
27357;SDS011;14831;50.474;7.616;2022-11-20T04:19:21;2.5;;;2.3;;
27357;SDS011;14831;50.474;7.616;2022-11-20T04:24:21;2.6;;;2.4;;
27357;SDS011;14831;50.474;7.616;2022-11-20T04:29:21;2.6;;;2.4;;
27357;SDS011;14831;50.474;7.616;2022-11-20T04:34:21;2.6;;;2.4;;
27357;SDS011;14831;50.474;7.616;2022-11-20T04:39:21;2.6;;;2.4;;
27357;SDS011;14831;50.474;7.616;2022-11-20T04:44:21;2.6;;;2.4;;
27357;SDS011;14831;50.474;7.616;2022-11-20T04:49:21;2.6;;;2.4;;
27357;SDS011;14831;50.474;7.616;2022-11-20T04:54:21;2.7;;;2.5;;
27357;SDS011;14831;50.474;7.616;2022-11-20T04:59:21;2.7;;;2.5;;
27357;SDS011;14831;50.474;7.616;2022-11-20T05:04:21;2.7;;;2.5;;
27357;SDS011;14831;50.474;7.616;2022-11-20T05:09:21;2.7;;;2.5;;
27357;SDS011;14831;50.474;7.616;2022-11-20T05:14:21;2.7;;;2.5;;
27357;SDS011;14831;50.474;7.616;2022-11-20T05:19:21;2.7;;;2.5;;
27357;SDS011;14831;50.474;7.616;2022-11-20T05:24:21;2.8;;;2.6;;
27357;SDS011;14831;50.474;7.616;2022-11-20T05:29:22;2.8;;;2.6;;
27357;SDS011;14831;50.474;7.616;2022-11-20T05:34:21;2.8;;;2.6;;
27357;SDS011;14831;50.474;7.616;2022-11-20T05:39:21;2.8;;;2.6;;
27357;SDS011;14831;50.474;7.616;2022-11-20T05:44:21;2.8;;;2.6;;
27357;SDS011;14831;50.474;7.616;2022-11-20T05:49:21;2.8;;;2.6;;
27357;SDS011;14831;50.474;7.616;2022-11-20T05:54:21;3.0;;;2.8;;
27357;SDS011;14831;50.474;7.616;2022-11-20T05:59:21;3.0;;;2.8;;
27357;SDS011;14831;50.474;7.616;2022-11-20T06:04:21;3.0;;;2.8;;
27357;SDS011;14831;50.474;7.616;2022-11-20T06:09:21;3.0;;;2.8;;
27357;SDS011;14831;50.474;7.616;2022-11-20T06:14:21;3.0;;;2.8;;
27357;SDS011;14831;50.474;7.616;2022-11-20T06:19:21;3.0;;;2.8;;
27357;SDS011;14831;50.474;7.616;2022-11-20T06:24:21;2.7;;;2.5;;
27357;SDS011;14831;50.474;7.616;2022-11-20T06:29:21;2.7;;;2.5;;
27357;SDS011;14831;50.474;7.616;2022-11-20T06:34:21;2.7;;;2.5;;
27357;SDS011;14831;50.474;7.616;2022-11-20T06:39:21;2.7;;;2.5;;
27357;SDS011;14831;50.474;7.616;2022-11-20T06:44:21;2.7;;;2.5;;
27357;SDS011;14831;50.474;7.616;2022-11-20T06:49:21;2.7;;;2.5;;
27357;SDS011;14831;50.474;7.616;2022-11-20T06:54:21;2.9;;;2.7;;
27357;SDS011;14831;50.474;7.616;2022-11-20T06:59:21;2.9;;;2.7;;
27357;SDS011;14831;50.474;7.616;2022-11-20T07:04:21;2.9;;;2.7;;
27357;SDS011;14831;50.474;7.616;2022-11-20T07:09:21;2.9;;;2.7;;
27357;SDS011;14831;50.474;7.616;2022-11-20T07:14:21;2.9;;;2.7;;
27357;SDS011;14831;50.474;7.616;2022-11-20T07:19:21;2.9;;;2.7;;
27357;SDS011;14831;50.474;7.616;2022-11-20T07:24:21;2.7;;;2.5;;
27357;SDS011;14831;50.474;7.616;2022-11-20T07:29:21;2.7;;;2.5;;
27357;SDS011;14831;50.474;7.616;2022-11-20T07:34:21;2.7;;;2.5;;
27357;SDS011;14831;50.474;7.616;2022-11-20T07:39:21;2.7;;;2.5;;
27357;SDS011;14831;50.474;7.616;2022-11-20T07:44:21;2.7;;;2.5;;
27357;SDS011;14831;50.474;7.616;2022-11-20T07:49:21;2.7;;;2.5;;
27357;SDS011;14831;50.474;7.616;2022-11-20T07:54:21;3.0;;;2.8;;
27357;SDS011;14831;50.474;7.616;2022-11-20T07:59:21;3.0;;;2.8;;
27357;SDS011;14831;50.474;7.616;2022-11-20T08:04:21;3.0;;;2.8;;
27357;SDS011;14831;50.474;7.616;2022-11-20T08:09:21;3.0;;;2.8;;
27357;SDS011;14831;50.474;7.616;2022-11-20T08:14:21;3.0;;;2.8;;
27357;SDS011;14831;50.474;7.616;2022-11-20T08:19:21;3.0;;;2.8;;
27357;SDS011;14831;50.474;7.616;2022-11-20T08:24:21;2.7;;;2.5;;
27357;SDS011;14831;50.474;7.616;2022-11-20T08:29:21;2.7;;;2.5;;
27357;SDS011;14831;50.474;7.616;2022-11-20T08:34:21;2.7;;;2.5;;
27357;SDS011;14831;50.474;7.616;2022-11-20T08:39:21;2.7;;;2.5;;
27357;SDS011;14831;50.474;7.616;2022-11-20T08:44:21;2.7;;;2.5;;
27357;SDS011;14831;50.474;7.616;2022-11-20T08:49:21;2.7;;;2.5;;
27357;SDS011;14831;50.474;7.616;2022-11-20T08:54:21;2.5;;;2.3;;
27357;SDS011;14831;50.474;7.616;2022-11-20T08:59:21;2.5;;;2.3;;
27357;SDS011;14831;50.474;7.616;2022-11-20T09:04:21;2.5;;;2.3;;
27357;SDS011;14831;50.474;7.616;2022-11-20T09:09:21;2.5;;;2.3;;
27357;SDS011;14831;50.474;7.616;2022-11-20T09:14:21;2.5;;;2.3;;
27357;SDS011;14831;50.474;7.616;2022-11-20T09:19:21;2.5;;;2.3;;
27357;SDS011;14831;50.474;7.616;2022-11-20T09:24:21;4.5;;;2.9;;
27357;SDS011;14831;50.474;7.616;2022-11-20T09:29:21;4.5;;;2.9;;
27357;SDS011;14831;50.474;7.616;2022-11-20T09:34:21;4.5;;;2.9;;
27357;SDS011;14831;50.474;7.616;2022-11-20T09:39:21;4.5;;;2.9;;
27357;SDS011;14831;50.474;7.616;2022-11-20T09:44:34;4.5;;;2.9;;
27357;SDS011;14831;50.474;7.616;2022-11-20T09:49:28;4.5;;;2.9;;
27357;SDS011;14831;50.474;7.616;2022-11-20T09:54:23;5.5;;;3.9;;
27357;SDS011;14831;50.474;7.616;2022-11-20T09:59:33;5.5;;;3.9;;
27357;SDS011;14831;50.474;7.616;2022-11-20T10:04:22;5.5;;;3.9;;
27357;SDS011;14831;50.474;7.616;2022-11-20T10:09:27;5.5;;;3.9;;
27357;SDS011;14831;50.474;7.616;2022-11-20T10:14:28;5.5;;;3.9;;
27357;SDS011;14831;50.474;7.616;2022-11-20T10:19:31;5.5;;;3.9;;
27357;SDS011;14831;50.474;7.616;2022-11-20T10:24:35;3.7;;;3.4;;
27357;SDS011;14831;50.474;7.616;2022-11-20T10:29:28;3.7;;;3.4;;
27357;SDS011;14831;50.474;7.616;2022-11-20T10:34:26;3.7;;;3.4;;
27357;SDS011;14831;50.474;7.616;2022-11-20T10:39:28;3.7;;;3.4;;
27357;SDS011;14831;50.474;7.616;2022-11-20T10:44:25;3.7;;;3.4;;
27357;SDS011;14831;50.474;7.616;2022-11-20T10:49:21;3.7;;;3.4;;
27357;SDS011;14831;50.474;7.616;2022-11-20T10:54:30;4.5;;;4.1;;
27357;SDS011;14831;50.474;7.616;2022-11-20T11:00:00;4.5;;;4.1;;
27357;SDS011;14831;50.474;7.616;2022-11-20T11:04:32;4.5;;;4.1;;
27357;SDS011;14831;50.474;7.616;2022-11-20T11:09:29;4.5;;;4.1;;
27357;SDS011;14831;50.474;7.616;2022-11-20T11:14:21;4.5;;;4.1;;
27357;SDS011;14831;50.474;7.616;2022-11-20T11:19:21;4.5;;;4.1;;
27357;SDS011;14831;50.474;7.616;2022-11-20T11:24:23;4.1;;;3.4;;
27357;SDS011;14831;50.474;7.616;2022-11-20T11:29:21;4.1;;;3.4;;
27357;SDS011;14831;50.474;7.616;2022-11-20T11:34:21;4.1;;;3.4;;
27357;SDS011;14831;50.474;7.616;2022-11-20T11:39:21;4.1;;;3.4;;
27357;SDS011;14831;50.474;7.616;2022-11-20T11:44:23;4.1;;;3.4;;
27357;SDS011;14831;50.474;7.616;2022-11-20T11:49:21;4.1;;;3.4;;
27357;SDS011;14831;50.474;7.616;2022-11-20T11:54:26;5.1;;;3.7;;
27357;SDS011;14831;50.474;7.616;2022-11-20T11:59:28;5.1;;;3.7;;
27357;SDS011;14831;50.474;7.616;2022-11-20T12:04:38;5.1;;;3.7;;
27357;SDS011;14831;50.474;7.616;2022-11-20T12:09:34;5.1;;;3.7;;
27357;SDS011;14831;50.474;7.616;2022-11-20T12:14:30;5.1;;;3.7;;
27357;SDS011;14831;50.474;7.616;2022-11-20T12:19:21;5.1;;;3.7;;
27357;SDS011;14831;50.474;7.616;2022-11-20T12:24:33;6.3;;;3.2;;
27357;SDS011;14831;50.474;7.616;2022-11-20T12:29:30;6.3;;;3.2;;
27357;SDS011;14831;50.474;7.616;2022-11-20T12:34:33;6.3;;;3.2;;
27357;SDS011;14831;50.474;7.616;2022-11-20T12:39:33;6.3;;;3.2;;
27357;SDS011;14831;50.474;7.616;2022-11-20T12:44:35;6.3;;;3.2;;
27357;SDS011;14831;50.474;7.616;2022-11-20T12:49:28;6.3;;;3.2;;
27357;SDS011;14831;50.474;7.616;2022-11-20T12:54:36;3.7;;;3.4;;
27357;SDS011;14831;50.474;7.616;2022-11-20T12:59:33;3.7;;;3.4;;
27357;SDS011;14831;50.474;7.616;2022-11-20T13:04:40;3.7;;;3.4;;
27357;SDS011;14831;50.474;7.616;2022-11-20T13:09:23;3.7;;;3.4;;
27357;SDS011;14831;50.474;7.616;2022-11-20T13:14:30;3.7;;;3.4;;
27357;SDS011;14831;50.474;7.616;2022-11-20T13:19:21;3.7;;;3.4;;
27357;SDS011;14831;50.474;7.616;2022-11-20T13:24:24;3.2;;;2.9;;
27357;SDS011;14831;50.474;7.616;2022-11-20T13:29:21;3.2;;;2.9;;
27357;SDS011;14831;50.474;7.616;2022-11-20T13:34:25;3.2;;;2.9;;
27357;SDS011;14831;50.474;7.616;2022-11-20T13:39:25;3.2;;;2.9;;
27357;SDS011;14831;50.474;7.616;2022-11-20T13:44:25;3.2;;;2.9;;
27357;SDS011;14831;50.474;7.616;2022-11-20T13:49:25;3.2;;;2.9;;
27357;SDS011;14831;50.474;7.616;2022-11-20T13:54:50;3.7;;;3.4;;
27357;SDS011;14831;50.474;7.616;2022-11-20T13:59:35;3.7;;;3.4;;
27357;SDS011;14831;50.474;7.616;2022-11-20T14:04:26;3.7;;;3.4;;
27357;SDS011;14831;50.474;7.616;2022-11-20T14:09:26;3.7;;;3.4;;
27357;SDS011;14831;50.474;7.616;2022-11-20T14:14:22;3.7;;;3.4;;
27357;SDS011;14831;50.474;7.616;2022-11-20T14:19:29;3.7;;;3.4;;
27357;SDS011;14831;50.474;7.616;2022-11-20T14:24:23;3.5;;;3.2;;
27357;SDS011;14831;50.474;7.616;2022-11-20T14:29:26;3.5;;;3.2;;
27357;SDS011;14831;50.474;7.616;2022-11-20T14:34:25;3.5;;;3.2;;
27357;SDS011;14831;50.474;7.616;2022-11-20T14:39:22;3.5;;;3.2;;
27357;SDS011;14831;50.474;7.616;2022-11-20T14:44:27;3.5;;;3.2;;
27357;SDS011;14831;50.474;7.616;2022-11-20T14:49:21;3.5;;;3.2;;
27357;SDS011;14831;50.474;7.616;2022-11-20T14:54:21;3.3;;;3.0;;
27357;SDS011;14831;50.474;7.616;2022-11-20T14:59:23;3.3;;;3.0;;
27357;SDS011;14831;50.474;7.616;2022-11-20T15:04:21;3.3;;;3.0;;
27357;SDS011;14831;50.474;7.616;2022-11-20T15:09:21;3.3;;;3.0;;
27357;SDS011;14831;50.474;7.616;2022-11-20T15:14:22;3.3;;;3.0;;
27357;SDS011;14831;50.474;7.616;2022-11-20T15:19:23;3.3;;;3.0;;
27357;SDS011;14831;50.474;7.616;2022-11-20T15:24:21;3.0;;;2.8;;
27357;SDS011;14831;50.474;7.616;2022-11-20T15:29:23;3.0;;;2.8;;
27357;SDS011;14831;50.474;7.616;2022-11-20T15:34:21;3.0;;;2.8;;
27357;SDS011;14831;50.474;7.616;2022-11-20T15:39:21;3.0;;;2.8;;
27357;SDS011;14831;50.474;7.616;2022-11-20T15:44:21;3.0;;;2.8;;
27357;SDS011;14831;50.474;7.616;2022-11-20T15:49:21;3.0;;;2.8;;
27357;SDS011;14831;50.474;7.616;2022-11-20T15:54:22;2.8;;;2.6;;
27357;SDS011;14831;50.474;7.616;2022-11-20T15:59:21;2.8;;;2.6;;
27357;SDS011;14831;50.474;7.616;2022-11-20T16:04:21;2.8;;;2.6;;
27357;SDS011;14831;50.474;7.616;2022-11-20T16:09:21;2.8;;;2.6;;
27357;SDS011;14831;50.474;7.616;2022-11-20T16:14:21;2.8;;;2.6;;
27357;SDS011;14831;50.474;7.616;2022-11-20T16:19:21;2.8;;;2.6;;
27357;SDS011;14831;50.474;7.616;2022-11-20T16:24:21;2.8;;;2.6;;
27357;SDS011;14831;50.474;7.616;2022-11-20T16:29:21;2.8;;;2.6;;
27357;SDS011;14831;50.474;7.616;2022-11-20T16:34:21;2.8;;;2.6;;
27357;SDS011;14831;50.474;7.616;2022-11-20T16:39:21;2.8;;;2.6;;
27357;SDS011;14831;50.474;7.616;2022-11-20T16:44:21;2.8;;;2.6;;
27357;SDS011;14831;50.474;7.616;2022-11-20T16:49:21;2.8;;;2.6;;
27357;SDS011;14831;50.474;7.616;2022-11-20T16:54:21;2.5;;;2.3;;
27357;SDS011;14831;50.474;7.616;2022-11-20T16:59:21;2.5;;;2.3;;
27357;SDS011;14831;50.474;7.616;2022-11-20T17:04:21;2.5;;;2.3;;
27357;SDS011;14831;50.474;7.616;2022-11-20T17:09:21;2.5;;;2.3;;
27357;SDS011;14831;50.474;7.616;2022-11-20T17:14:21;2.5;;;2.3;;
27357;SDS011;14831;50.474;7.616;2022-11-20T17:19:21;2.5;;;2.3;;
27357;SDS011;14831;50.474;7.616;2022-11-20T17:24:21;2.3;;;2.1;;
27357;SDS011;14831;50.474;7.616;2022-11-20T17:29:21;2.3;;;2.1;;
27357;SDS011;14831;50.474;7.616;2022-11-20T17:34:21;2.3;;;2.1;;
27357;SDS011;14831;50.474;7.616;2022-11-20T17:39:21;2.3;;;2.1;;
27357;SDS011;14831;50.474;7.616;2022-11-20T17:44:21;2.3;;;2.1;;
27357;SDS011;14831;50.474;7.616;2022-11-20T17:49:21;2.3;;;2.1;;
27357;SDS011;14831;50.474;7.616;2022-11-20T17:54:21;2.0;;;1.9;;
27357;SDS011;14831;50.474;7.616;2022-11-20T17:59:21;2.0;;;1.9;;
27357;SDS011;14831;50.474;7.616;2022-11-20T18:04:21;2.0;;;1.9;;
27357;SDS011;14831;50.474;7.616;2022-11-20T18:09:21;2.0;;;1.9;;
27357;SDS011;14831;50.474;7.616;2022-11-20T18:14:21;2.0;;;1.9;;
27357;SDS011;14831;50.474;7.616;2022-11-20T18:19:23;2.0;;;1.9;;
27357;SDS011;14831;50.474;7.616;2022-11-20T18:24:21;2.0;;;1.9;;
27357;SDS011;14831;50.474;7.616;2022-11-20T18:29:21;2.0;;;1.9;;
27357;SDS011;14831;50.474;7.616;2022-11-20T18:34:21;2.0;;;1.9;;
27357;SDS011;14831;50.474;7.616;2022-11-20T18:39:21;2.0;;;1.9;;
27357;SDS011;14831;50.474;7.616;2022-11-20T18:44:23;2.0;;;1.9;;
27357;SDS011;14831;50.474;7.616;2022-11-20T18:49:21;2.0;;;1.9;;
27357;SDS011;14831;50.474;7.616;2022-11-20T18:54:21;1.5;;;1.4;;
27357;SDS011;14831;50.474;7.616;2022-11-20T18:59:21;1.5;;;1.4;;
27357;SDS011;14831;50.474;7.616;2022-11-20T19:04:21;1.5;;;1.4;;
27357;SDS011;14831;50.474;7.616;2022-11-20T19:09:22;1.5;;;1.4;;
27357;SDS011;14831;50.474;7.616;2022-11-20T19:14:21;1.5;;;1.4;;
27357;SDS011;14831;50.474;7.616;2022-11-20T19:19:21;1.5;;;1.4;;
27357;SDS011;14831;50.474;7.616;2022-11-20T19:24:21;1.9;;;1.5;;
27357;SDS011;14831;50.474;7.616;2022-11-20T19:29:22;1.9;;;1.5;;
27357;SDS011;14831;50.474;7.616;2022-11-20T19:34:21;1.9;;;1.5;;
27357;SDS011;14831;50.474;7.616;2022-11-20T19:39:21;1.9;;;1.5;;
27357;SDS011;14831;50.474;7.616;2022-11-20T19:44:21;1.9;;;1.5;;
27357;SDS011;14831;50.474;7.616;2022-11-20T19:49:21;1.9;;;1.5;;
27357;SDS011;14831;50.474;7.616;2022-11-20T19:54:21;1.6;;;1.5;;
27357;SDS011;14831;50.474;7.616;2022-11-20T19:59:21;1.6;;;1.5;;
27357;SDS011;14831;50.474;7.616;2022-11-20T20:04:21;1.6;;;1.5;;
27357;SDS011;14831;50.474;7.616;2022-11-20T20:09:21;1.6;;;1.5;;
27357;SDS011;14831;50.474;7.616;2022-11-20T20:14:21;1.6;;;1.5;;
27357;SDS011;14831;50.474;7.616;2022-11-20T20:19:21;1.6;;;1.5;;
27357;SDS011;14831;50.474;7.616;2022-11-20T20:24:21;1.5;;;1.3;;
27357;SDS011;14831;50.474;7.616;2022-11-20T20:29:21;1.5;;;1.3;;
27357;SDS011;14831;50.474;7.616;2022-11-20T20:34:21;1.5;;;1.3;;
27357;SDS011;14831;50.474;7.616;2022-11-20T20:39:21;1.5;;;1.3;;
27357;SDS011;14831;50.474;7.616;2022-11-20T20:44:21;1.5;;;1.3;;
27357;SDS011;14831;50.474;7.616;2022-11-20T20:49:21;1.5;;;1.3;;
27357;SDS011;14831;50.474;7.616;2022-11-20T20:54:21;1.2;;;1.2;;
27357;SDS011;14831;50.474;7.616;2022-11-20T20:59:21;1.2;;;1.2;;
27357;SDS011;14831;50.474;7.616;2022-11-20T21:04:21;1.2;;;1.2;;
27357;SDS011;14831;50.474;7.616;2022-11-20T21:09:21;1.2;;;1.2;;
27357;SDS011;14831;50.474;7.616;2022-11-20T21:14:21;1.2;;;1.2;;
27357;SDS011;14831;50.474;7.616;2022-11-20T21:19:21;1.2;;;1.2;;
27357;SDS011;14831;50.474;7.616;2022-11-20T21:24:21;1.3;;;1.2;;
27357;SDS011;14831;50.474;7.616;2022-11-20T21:29:22;1.3;;;1.2;;
27357;SDS011;14831;50.474;7.616;2022-11-20T21:34:22;1.3;;;1.2;;
27357;SDS011;14831;50.474;7.616;2022-11-20T21:39:21;1.3;;;1.2;;
27357;SDS011;14831;50.474;7.616;2022-11-20T21:44:21;1.3;;;1.2;;
27357;SDS011;14831;50.474;7.616;2022-11-20T21:49:21;1.3;;;1.2;;
27357;SDS011;14831;50.474;7.616;2022-11-20T21:54:21;1.2;;;1.1;;
27357;SDS011;14831;50.474;7.616;2022-11-20T21:59:21;1.2;;;1.1;;
27357;SDS011;14831;50.474;7.616;2022-11-20T22:04:21;1.2;;;1.1;;
27357;SDS011;14831;50.474;7.616;2022-11-20T22:09:21;1.2;;;1.1;;
27357;SDS011;14831;50.474;7.616;2022-11-20T22:14:21;1.2;;;1.1;;
27357;SDS011;14831;50.474;7.616;2022-11-20T22:19:22;1.2;;;1.1;;
27357;SDS011;14831;50.474;7.616;2022-11-20T22:24:21;1.0;;;1.0;;
27357;SDS011;14831;50.474;7.616;2022-11-20T22:29:21;1.0;;;1.0;;
27357;SDS011;14831;50.474;7.616;2022-11-20T22:34:21;1.0;;;1.0;;
27357;SDS011;14831;50.474;7.616;2022-11-20T22:39:21;1.0;;;1.0;;
27357;SDS011;14831;50.474;7.616;2022-11-20T22:44:21;1.0;;;1.0;;
27357;SDS011;14831;50.474;7.616;2022-11-20T22:49:21;1.0;;;1.0;;
27357;SDS011;14831;50.474;7.616;2022-11-20T22:54:21;1.0;;;1.0;;
27357;SDS011;14831;50.474;7.616;2022-11-20T22:59:21;1.0;;;1.0;;
27357;SDS011;14831;50.474;7.616;2022-11-20T23:04:21;1.0;;;1.0;;
27357;SDS011;14831;50.474;7.616;2022-11-20T23:09:21;1.0;;;1.0;;
27357;SDS011;14831;50.474;7.616;2022-11-20T23:14:21;1.0;;;1.0;;
27357;SDS011;14831;50.474;7.616;2022-11-20T23:19:21;1.0;;;1.0;;
27357;SDS011;14831;50.474;7.616;2022-11-20T23:24:21;0.9;;;0.9;;
27357;SDS011;14831;50.474;7.616;2022-11-20T23:29:21;0.9;;;0.9;;
27357;SDS011;14831;50.474;7.616;2022-11-20T23:34:21;0.9;;;0.9;;
27357;SDS011;14831;50.474;7.616;2022-11-20T23:39:21;0.9;;;0.9;;
27357;SDS011;14831;50.474;7.616;2022-11-20T23:44:21;0.9;;;0.9;;
27357;SDS011;14831;50.474;7.616;2022-11-20T23:49:21;0.9;;;0.9;;
27357;SDS011;14831;50.474;7.616;2022-11-20T23:54:21;0.8;;;0.8;;
27357;SDS011;14831;50.474;7.616;2022-11-20T23:59:21;0.8;;;0.8;;
